This is the latest recevied weather packets stored in our database for station/object PA3CPS. If no packets are shown the sender has not sent any weather packets the latest 1 day(s).
| Time | Temp. | Humidity | Pressure | Rain* | Wind** | Luminosity | Snow |
|---|---|---|---|---|---|---|---|
| 1777984790 | 11.67° C | 83% | 1010.5 hPa | 0 mm | 2.24 m/s, 359° | 200 W/m² | - |
| 1777984489 | 12.22° C | 83% | 1010.5 hPa | 0 mm | 1.34 m/s, 33° | 162 W/m² | - |
| 1777984187 | 12.22° C | 83% | 1010.5 hPa | 0 mm | 2.24 m/s, 20° | 176 W/m² | - |
| 1777983886 | 12.22° C | 82% | 1010.5 hPa | 0 mm | 1.79 m/s, 328° | 236 W/m² | - |
| 1777983585 | 12.22° C | 83% | 1010.5 hPa | 0 mm | 2.68 m/s, 342° | 234 W/m² | - |
| 1777983281 | 12.22° C | 83% | 1010.5 hPa | 0 mm | 3.58 m/s, 348° | 309 W/m² | - |
| 1777982978 | 12.22° C | 83% | 1010.4 hPa | 0 mm | 3.13 m/s, 318° | 306 W/m² | - |
| 1777982676 | 12.22° C | 83% | 1010.4 hPa | 0 mm | 2.24 m/s, 341° | 229 W/m² | - |
| 1777982377 | 12.22° C | 84% | 1010.4 hPa | 0 mm | 2.24 m/s, 320° | 216 W/m² | - |
| 1777982075 | 12.22° C | 83% | 1010.3 hPa | 0 mm | 2.68 m/s, 342° | 288 W/m² | - |
| 1777981772 | 12.22° C | 83% | 1010.4 hPa | 0 mm | 4.02 m/s, 335° | 306 W/m² | - |
| 1777981472 | 11.67° C | 83% | 1010.3 hPa | 0 mm | 2.68 m/s, 347° | 271 W/m² | - |
| 1777981168 | 11.67° C | 83% | 1010.3 hPa | 0 mm | 2.68 m/s, 349° | 330 W/m² | - |
| 1777980866 | 11.67° C | 84% | 1010.5 hPa | 0 mm | 2.24 m/s, 333° | 309 W/m² | - |
| 1777980562 | 11.67° C | 84% | 1010.6 hPa | 0 mm | 2.24 m/s, 359° | 302 W/m² | - |
| 1777980260 | 11.67° C | 84% | 1010.7 hPa | 0 mm | 3.58 m/s, 344° | 308 W/m² | - |
| 1777979960 | 11.67° C | 84% | 1010.7 hPa | 0 mm | 3.13 m/s, 5° | 251 W/m² | - |
| 1777979658 | 11.67° C | 84% | 1010.7 hPa | 0 mm | 2.24 m/s, 17° | 193 W/m² | - |
| 1777979355 | 11.67° C | 84% | 1010.7 hPa | 0 mm | 2.68 m/s, 33° | 209 W/m² | - |
| 1777979054 | 11.67° C | 84% | 1010.8 hPa | 0 mm | 2.68 m/s, 10° | 239 W/m² | - |
| 1777978753 | 11.67° C | 84% | 1010.9 hPa | 0 mm | 2.68 m/s, 331° | 301 W/m² | - |
| 1777978451 | 11.67° C | 85% | 1010.8 hPa | 0 mm | 3.58 m/s, 348° | 374 W/m² | - |
| 1777977848 | 11.67° C | 86% | 1010.8 hPa | 0 mm | 2.24 m/s, 347° | 388 W/m² | - |
| 1777977546 | 11.67° C | 86% | 1010.9 hPa | 0 mm | 3.13 m/s, 356° | 411 W/m² | - |
| 1777977245 | 11.11° C | 86% | 1010.8 hPa | 0 mm | 2.24 m/s, 340° | 318 W/m² | - |
* Rain latest hour (hover to see other rain measurements)
** Current wind speed in m/s (hover to see current wind gust speed)